Terminal Aerodrome Forecast
Issued by NWS

Home | Current Version | Previous Version | Text Only | Print | Product List | Glossary On
Versions: 1 2 3 4 5 6 7 8 9 10 11 12 13 14 15 16 17 18
512
FTUS42 KFFC 232337
TAFPDK
TAF
KPDK 232337Z 2400/2424 25009KT P6SM VCSH SCT050
      TEMPO 2400/2402 VRB15G25KT 3SM TSRA BKN035CB
     FM240200 25005KT P6SM FEW050 SCT120 SCT250
     FM241400 27006KT P6SM FEW040 SCT250
     FM241600 28007KT P6SM VCSH SCT050 PROB30 2417/2423 4SM TSRA
      BKN035CB=

USA.gov is the U.S. government's official web portal to all federal, state and local government web resources and services.